Time;durP1;ratioP1;P1;durP2;ratioP2;P2;SDS_P1;SDS_P2;PMS_P1;PMS_P2;Temp;Humidity;BMP_temperature;BMP_pressure;BME280_temperature;BME280_humidity;BME280_pressure;Samples;Min_cycle;Max_cycle;Signal;HPM_P1;HPM_P2
2020/12/31 00:00:48;;;;;;;11.85;6.70;;;;;;;;;;6179135;23;20736;-80
2020/12/31 00:03:14;;;;;;;9.52;6.30;;;;;;;;;;6180792;23;20025;-78
2020/12/31 00:05:40;;;;;;;9.13;6.43;;;;;;;;;;6180317;23;20052;-80
2020/12/31 00:08:07;;;;;;;12.98;7.20;;;;;;;;;;6180112;23;20028;-79
2020/12/31 00:10:33;;;;;;;11.90;6.22;;;;;;;;;;6177187;23;20043;-78
2020/12/31 00:12:59;;;;;;;12.07;7.30;;;;;;;;;;6179648;23;20834;-78
2020/12/31 00:15:25;;;;;;;10.85;6.35;;;;;;;;;;6180781;23;20083;-80
2020/12/31 00:17:51;;;;;;;8.63;6.55;;;;;;;;;;6169583;22;20045;-82
2020/12/31 00:20:26;;;;;;;9.55;6.47;;;;;;;;;;6150351;23;20075;-80
2020/12/31 00:22:52;;;;;;;10.68;6.25;;;;;;;;;;6179959;23;20330;-80
2020/12/31 00:25:20;;;;;;;11.13;6.53;;;;;;;;;;6181629;23;20025;-80
2020/12/31 00:27:47;;;;;;;11.07;5.72;;;;;;;;;;6181751;23;20107;-81
2020/12/31 00:30:16;;;;;;;9.88;6.78;;;;;;;;;;6179952;23;20128;-80
2020/12/31 00:32:44;;;;;;;8.23;5.60;;;;;;;;;;6157991;23;20021;-80
2020/12/31 00:35:16;;;;;;;9.10;5.35;;;;;;;;;;6181888;23;20400;-79
2020/12/31 00:37:43;;;;;;;;;;;;;;;;;;6182788;23;20442;-75
2020/12/31 00:40:20;;;;;;;6.82;4.90;;;;;;;;;;6157975;23;19995;-76
2020/12/31 00:42:46;;;;;;;8.23;5.00;;;;;;;;;;6180372;23;20029;-77
2020/12/31 00:45:12;;;;;;;8.43;5.88;;;;;;;;;;6181649;23;20108;-77
2020/12/31 00:47:39;;;;;;;8.52;5.30;;;;;;;;;;6182145;23;20132;-79
2020/12/31 00:50:05;;;;;;;8.82;5.47;;;;;;;;;;6182332;23;20028;-77
2020/12/31 00:52:31;;;;;;;6.95;4.82;;;;;;;;;;6182852;23;20027;-76
2020/12/31 00:54:57;;;;;;;8.02;5.18;;;;;;;;;;6182807;23;20443;-77
2020/12/31 00:57:23;;;;;;;7.55;5.38;;;;;;;;;;6183144;23;20503;-76
2020/12/31 00:59:49;;;;;;;5.35;4.60;;;;;;;;;;6183461;23;20116;-76
2020/12/31 01:02:15;;;;;;;10.45;5.00;;;;;;;;;;6182201;23;20047;-77
2020/12/31 01:04:41;;;;;;;7.80;4.97;;;;;;;;;;6184598;23;20021;-77
2020/12/31 01:07:08;;;;;;;10.05;5.28;;;;;;;;;;6183938;23;20025;-78
2020/12/31 01:09:34;;;;;;;7.13;4.68;;;;;;;;;;6183652;23;20096;-78
2020/12/31 01:12:02;;;;;;;6.60;4.65;;;;;;;;;;6182643;23;20100;-77
2020/12/31 01:14:28;;;;;;;8.18;4.85;;;;;;;;;;6183262;23;20027;-78
2020/12/31 01:16:54;;;;;;;7.00;4.97;;;;;;;;;;6182001;23;20695;-79
2020/12/31 01:19:20;;;;;;;6.50;4.55;;;;;;;;;;6182525;23;20103;-78
2020/12/31 01:21:46;;;;;;;6.97;5.13;;;;;;;;;;6183020;23;20029;-79
2020/12/31 01:24:15;;;;;;;7.10;4.28;;;;;;;;;;6183419;23;20449;-81
2020/12/31 01:26:41;;;;;;;9.40;4.93;;;;;;;;;;6182529;23;20104;-79
2020/12/31 01:29:07;;;;;;;6.50;4.53;;;;;;;;;;6183708;23;20035;-80
2020/12/31 01:31:33;;;;;;;8.30;5.03;;;;;;;;;;6184247;23;20493;-80
2020/12/31 01:33:59;;;;;;;7.90;4.00;;;;;;;;;;6184277;23;20029;-79
2020/12/31 01:36:26;;;;;;;6.00;4.00;;;;;;;;;;6183530;23;20108;-79
2020/12/31 01:38:52;;;;;;;7.70;3.95;;;;;;;;;;6184251;23;20024;-81
2020/12/31 01:41:22;;;;;;;6.05;4.30;;;;;;;;;;6183989;23;20405;-80
2020/12/31 01:44:01;;;;;;;6.95;4.00;;;;;;;;;;6184389;23;20081;-80
2020/12/31 01:46:31;;;;;;;6.28;3.75;;;;;;;;;;6156765;23;20025;-79
2020/12/31 01:48:57;;;;;;;7.90;4.28;;;;;;;;;;6157881;23;20031;-78
2020/12/31 01:51:23;;;;;;;6.85;4.05;;;;;;;;;;6181421;23;20108;-77
2020/12/31 01:53:56;;;;;;;6.40;3.97;;;;;;;;;;6180417;23;20386;-79
2020/12/31 01:56:28;;;;;;;5.72;3.95;;;;;;;;;;6183289;23;20101;-79
2020/12/31 01:58:55;;;;;;;6.63;3.78;;;;;;;;;;6182739;23;20017;-79
2020/12/31 02:01:21;;;;;;;6.65;3.83;;;;;;;;;;6177973;23;20052;-81
2020/12/31 02:03:48;;;;;;;5.93;3.88;;;;;;;;;;6181946;23;20104;-81
2020/12/31 02:06:15;;;;;;;5.68;3.88;;;;;;;;;;6182884;23;20021;-80
2020/12/31 02:08:45;;;;;;;5.93;3.53;;;;;;;;;;6181448;23;20024;-79
2020/12/31 02:11:15;;;;;;;7.85;4.47;;;;;;;;;;6181913;23;20370;-80
2020/12/31 02:13:45;;;;;;;6.20;3.70;;;;;;;;;;6155583;23;20092;-80
2020/12/31 02:16:15;;;;;;;5.60;3.20;;;;;;;;;;6182130;23;20028;-80
2020/12/31 02:18:55;;;;;;;4.85;3.28;;;;;;;;;;6181340;23;20017;-79
2020/12/31 02:21:24;;;;;;;7.30;4.78;;;;;;;;;;6182926;23;20021;-80
2020/12/31 02:23:50;;;;;;;5.85;3.75;;;;;;;;;;6181309;23;20021;-81
2020/12/31 02:26:16;;;;;;;5.35;3.38;;;;;;;;;;6180803;23;20027;-81
2020/12/31 02:28:43;;;;;;;6.22;3.63;;;;;;;;;;6181579;23;20021;-80
2020/12/31 02:31:09;;;;;;;5.78;3.95;;;;;;;;;;6180788;23;20099;-81
2020/12/31 02:33:35;;;;;;;4.93;3.25;;;;;;;;;;6182160;23;20640;-81
2020/12/31 02:36:01;;;;;;;5.40;3.55;;;;;;;;;;6181715;23;20021;-80
2020/12/31 02:38:27;;;;;;;7.45;3.63;;;;;;;;;;6156009;23;20101;-79
2020/12/31 02:40:53;;;;;;;8.23;3.40;;;;;;;;;;6182436;23;20025;-81
2020/12/31 02:43:20;;;;;;;4.47;2.83;;;;;;;;;;6183279;23;20394;-81
2020/12/31 02:45:46;;;;;;;5.43;3.40;;;;;;;;;;6183482;23;20023;-81
2020/12/31 02:48:12;;;;;;;8.52;3.80;;;;;;;;;;6182576;23;20305;-81
2020/12/31 02:50:38;;;;;;;4.53;3.13;;;;;;;;;;6155599;23;20108;-82
2020/12/31 02:53:04;;;;;;;5.00;2.80;;;;;;;;;;6181800;23;20469;-78
2020/12/31 02:55:30;;;;;;;4.95;3.38;;;;;;;;;;6183170;23;20021;-80
2020/12/31 02:57:56;;;;;;;5.80;3.35;;;;;;;;;;6181511;23;20108;-79
2020/12/31 03:00:22;;;;;;;4.65;3.05;;;;;;;;;;6183437;23;20148;-79
2020/12/31 03:02:49;;;;;;;5.63;3.13;;;;;;;;;;6183917;23;20025;-79
2020/12/31 03:05:15;;;;;;;4.85;2.90;;;;;;;;;;6183177;23;20044;-80
2020/12/31 03:07:41;;;;;;;5.45;3.20;;;;;;;;;;6182458;23;20104;-81
2020/12/31 03:10:07;;;;;;;5.80;2.92;;;;;;;;;;6155958;23;20029;-78
2020/12/31 03:12:35;;;;;;;3.47;2.70;;;;;;;;;;6182423;23;20079;-77
2020/12/31 03:15:03;;;;;;;4.88;3.00;;;;;;;;;;6181772;23;20108;-75
2020/12/31 03:17:30;;;;;;;3.25;2.50;;;;;;;;;;6182543;23;20025;-78
2020/12/31 03:19:56;;;;;;;4.45;3.15;;;;;;;;;;6182725;23;20052;-76
2020/12/31 03:22:22;;;;;;;4.65;2.55;;;;;;;;;;6157750;23;20024;-80
2020/12/31 03:24:48;;;;;;;4.15;2.40;;;;;;;;;;6155659;23;20041;-80
2020/12/31 03:27:14;;;;;;;6.05;3.45;;;;;;;;;;6182737;23;20354;-80
2020/12/31 03:29:40;;;;;;;4.43;2.63;;;;;;;;;;6182844;23;20021;-78
2020/12/31 03:32:07;;;;;;;4.95;3.03;;;;;;;;;;6181540;23;20033;-77
2020/12/31 03:34:33;;;;;;;4.35;2.85;;;;;;;;;;6183194;23;20025;-78
2020/12/31 03:36:59;;;;;;;4.78;2.75;;;;;;;;;;6181847;23;20536;-79
2020/12/31 03:39:25;;;;;;;5.50;2.85;;;;;;;;;;6182318;23;20104;-77
2020/12/31 03:41:51;;;;;;;4.07;2.53;;;;;;;;;;6182273;23;20021;-77
2020/12/31 03:44:17;;;;;;;3.78;2.42;;;;;;;;;;6181311;23;20483;-78
2020/12/31 03:46:43;;;;;;;5.57;2.78;;;;;;;;;;6182197;23;20393;-77
2020/12/31 03:49:09;;;;;;;3.45;2.10;;;;;;;;;;6182342;23;20104;-79
2020/12/31 03:51:35;;;;;;;4.65;2.70;;;;;;;;;;6181797;23;20401;-77
2020/12/31 03:54:02;;;;;;;4.78;2.30;;;;;;;;;;6182027;23;20021;-80
2020/12/31 03:56:28;;;;;;;3.42;2.55;;;;;;;;;;6181672;23;20107;-80
2020/12/31 03:58:54;;;;;;;4.53;2.13;;;;;;;;;;6180646;23;20027;-82
2020/12/31 04:01:26;;;;;;;4.13;2.75;;;;;;;;;;6181059;23;20021;-82
2020/12/31 04:03:52;;;;;;;3.42;2.30;;;;;;;;;;6182864;23;20420;-81
2020/12/31 04:06:18;;;;;;;5.40;2.50;;;;;;;;;;6181558;23;20017;-79
2020/12/31 04:08:44;;;;;;;3.38;1.92;;;;;;;;;;6181215;23;20025;-79
2020/12/31 04:11:11;;;;;;;3.67;2.03;;;;;;;;;;6180021;23;20025;-79
2020/12/31 04:13:37;;;;;;;3.33;2.40;;;;;;;;;;6181879;23;20515;-79
2020/12/31 04:16:03;;;;;;;4.65;2.47;;;;;;;;;;6180486;23;20021;-80
2020/12/31 04:18:29;;;;;;;4.53;2.55;;;;;;;;;;6180492;23;20083;-79
2020/12/31 04:20:56;;;;;;;4.65;2.50;;;;;;;;;;6180374;23;20809;-82
2020/12/31 04:23:22;;;;;;;4.18;2.40;;;;;;;;;;6181264;23;20035;-78
2020/12/31 04:25:49;;;;;;;3.65;2.67;;;;;;;;;;6179747;23;20048;-79
2020/12/31 04:28:15;;;;;;;5.10;2.35;;;;;;;;;;6179676;23;20033;-78
2020/12/31 04:30:44;;;;;;;3.00;2.10;;;;;;;;;;6180211;23;20028;-77
2020/12/31 04:33:10;;;;;;;3.50;2.17;;;;;;;;;;6183996;23;20024;-79
2020/12/31 04:35:39;;;;;;;5.57;2.13;;;;;;;;;;6183064;23;20021;-77
2020/12/31 04:38:06;;;;;;;3.22;1.80;;;;;;;;;;6189288;23;20078;-79
2020/12/31 04:40:32;;;;;;;3.90;2.28;;;;;;;;;;6188153;23;20017;-79
2020/12/31 04:42:59;;;;;;;3.83;2.10;;;;;;;;;;6182034;23;20529;-80
2020/12/31 04:45:25;;;;;;;4.13;2.25;;;;;;;;;;6181328;23;20057;-78
2020/12/31 04:48:06;;;;;;;4.22;2.50;;;;;;;;;;6181721;23;20523;-80
2020/12/31 04:50:33;;;;;;;2.97;2.17;;;;;;;;;;6180030;23;20021;-81
2020/12/31 04:53:01;;;;;;;4.18;2.13;;;;;;;;;;6181368;23;20023;-80
2020/12/31 04:55:28;;;;;;;3.47;2.33;;;;;;;;;;6180985;23;20635;-80
2020/12/31 04:57:54;;;;;;;3.40;2.40;;;;;;;;;;6155214;23;20101;-81
2020/12/31 05:00:20;;;;;;;4.40;2.88;;;;;;;;;;6180875;23;20858;-80
2020/12/31 05:02:53;;;;;;;3.30;1.90;;;;;;;;;;6181996;23;20248;-78
2020/12/31 05:05:20;;;;;;;3.92;1.90;;;;;;;;;;6154472;23;20103;-81
2020/12/31 05:07:49;;;;;;;3.70;2.10;;;;;;;;;;6179542;23;20024;-80
2020/12/31 05:10:16;;;;;;;3.83;2.33;;;;;;;;;;6182956;23;20100;-79
2020/12/31 05:12:42;;;;;;;4.20;2.13;;;;;;;;;;6180506;23;20017;-79
2020/12/31 05:15:08;;;;;;;4.82;2.15;;;;;;;;;;6180621;23;20103;-78
2020/12/31 05:17:34;;;;;;;3.80;2.17;;;;;;;;;;6180058;23;20024;-79
2020/12/31 05:20:12;;;;;;;4.18;2.33;;;;;;;;;;6183155;23;20100;-78
2020/12/31 05:22:38;;;;;;;3.97;2.17;;;;;;;;;;6183420;23;20033;-77
2020/12/31 05:25:04;;;;;;;3.97;2.00;;;;;;;;;;6183365;23;20083;-80
2020/12/31 05:27:33;;;;;;;3.10;1.98;;;;;;;;;;6183464;23;20032;-78
2020/12/31 05:30:06;;;;;;;5.95;2.42;;;;;;;;;;6184420;23;20099;-80
2020/12/31 05:32:37;;;;;;;3.72;2.03;;;;;;;;;;6181761;23;20087;-79
2020/12/31 05:35:13;;;;;;;3.75;1.90;;;;;;;;;;6184168;23;20322;-81
2020/12/31 05:37:39;;;;;;;5.97;2.40;;;;;;;;;;6184411;23;20445;-77
2020/12/31 05:40:07;;;;;;;3.78;2.20;;;;;;;;;;6183359;23;20465;-79
2020/12/31 05:42:34;;;;;;;2.90;2.30;;;;;;;;;;6182930;23;20029;-78
2020/12/31 05:45:14;;;;;;;3.83;1.95;;;;;;;;;;6183160;23;20959;-77
2020/12/31 05:47:45;;;;;;;3.67;2.25;;;;;;;;;;6183336;23;20507;-78
2020/12/31 05:50:15;;;;;;;2.58;1.70;;;;;;;;;;6157843;23;20412;-81
2020/12/31 05:52:41;;;;;;;4.63;2.00;;;;;;;;;;6181946;23;20071;-79
2020/12/31 05:55:08;;;;;;;3.05;1.90;;;;;;;;;;6181699;23;20025;-79
2020/12/31 05:57:42;;;;;;;3.58;1.92;;;;;;;;;;6157205;23;20064;-79
2020/12/31 06:00:10;;;;;;;3.53;2.15;;;;;;;;;;6183562;23;20337;-76
2020/12/31 06:02:40;;;;;;;4.22;1.80;;;;;;;;;;6183041;23;20112;-77
2020/12/31 06:05:10;;;;;;;3.45;1.77;;;;;;;;;;6182188;23;20025;-77
2020/12/31 06:07:40;;;;;;;3.53;1.88;;;;;;;;;;6182833;23;20408;-76
2020/12/31 06:10:07;;;;;;;3.45;2.13;;;;;;;;;;6182492;23;20517;-77
2020/12/31 06:13:00;;;;;;;3.90;2.58;;;;;;;;;;6182780;23;20051;-76
2020/12/31 06:15:34;;;;;;;2.55;1.52;;;;;;;;;;6175946;23;20128;-79
2020/12/31 06:18:02;;;;;;;4.00;1.95;;;;;;;;;;6182106;23;20420;-78
2020/12/31 06:20:31;;;;;;;2.78;1.77;;;;;;;;;;6181614;23;20031;-81
2020/12/31 06:23:02;;;;;;;4.63;2.28;;;;;;;;;;6182806;23;20124;-81
2020/12/31 06:25:40;;;;;;;2.85;1.98;;;;;;;;;;6183302;23;20417;-81
2020/12/31 06:28:19;;;;;;;3.05;1.65;;;;;;;;;;6182452;23;20488;-80
2020/12/31 06:30:47;;;;;;;2.47;1.70;;;;;;;;;;6182090;23;20018;-81
2020/12/31 06:33:30;;;;;;;2.47;2.22;;;;;;;;;;6179004;23;20465;-81
2020/12/31 06:36:01;;;;;;;3.05;1.50;;;;;;;;;;6182364;23;20021;-80
2020/12/31 06:38:34;;;;;;;3.53;1.90;;;;;;;;;;6155470;23;20029;-81
2020/12/31 06:41:01;;;;;;;2.42;1.60;;;;;;;;;;6182714;23;20021;-81
2020/12/31 06:43:31;;;;;;;2.85;1.73;;;;;;;;;;6182405;23;20029;-79
2020/12/31 06:45:58;;;;;;;2.38;1.60;;;;;;;;;;6183454;23;20457;-79
2020/12/31 06:48:27;;;;;;;2.50;1.67;;;;;;;;;;6183890;23;20024;-79
2020/12/31 06:50:59;;;;;;;4.23;1.80;;;;;;;;;;6182316;23;20074;-80
2020/12/31 06:53:31;;;;;;;2.88;1.55;;;;;;;;;;6182562;23;20337;-80
2020/12/31 06:55:58;;;;;;;2.78;1.60;;;;;;;;;;6180901;23;20056;-80
2020/12/31 06:58:24;;;;;;;2.97;1.83;;;;;;;;;;6183239;23;20100;-82
2020/12/31 07:00:52;;;;;;;2.75;1.50;;;;;;;;;;6156323;23;20100;-79
2020/12/31 07:03:37;;;;;;;3.05;1.70;;;;;;;;;;6181845;23;20413;-79
2020/12/31 07:06:22;;;;;;;2.58;1.85;;;;;;;;;;6180254;23;20021;-81
2020/12/31 07:08:55;;;;;;;3.28;1.70;;;;;;;;;;6182334;23;20071;-80
2020/12/31 07:11:34;;;;;;;3.95;1.85;;;;;;;;;;6181596;23;20039;-79
2020/12/31 07:14:01;;;;;;;;;;;;;;;;;;6182607;23;20025;-79
2020/12/31 07:16:40;;;;;;;2.50;1.60;;;;;;;;;;6182075;23;19944;-82
2020/12/31 07:19:07;;;;;;;2.42;1.38;;;;;;;;;;6183007;23;20112;-78
2020/12/31 07:21:35;;;;;;;2.85;1.80;;;;;;;;;;6183738;23;20506;-81
2020/12/31 07:24:20;;;;;;;2.17;1.38;;;;;;;;;;6157324;23;20408;-77
2020/12/31 07:26:48;;;;;;;2.90;1.40;;;;;;;;;;6182628;23;20056;-75
2020/12/31 07:29:19;;;;;;;2.80;1.58;;;;;;;;;;6181724;23;20461;-74
2020/12/31 07:31:50;;;;;;;7.93;1.83;;;;;;;;;;6181107;23;20021;-77
2020/12/31 07:34:29;;;;;;;2.08;1.20;;;;;;;;;;6182202;23;20412;-77
2020/12/31 07:36:55;;;;;;;3.95;2.10;;;;;;;;;;6180612;23;20084;-76
2020/12/31 07:39:21;;;;;;;2.58;1.73;;;;;;;;;;6180193;23;20103;-78
2020/12/31 07:41:47;;;;;;;3.35;1.40;;;;;;;;;;6181087;23;20025;-77
2020/12/31 07:44:13;;;;;;;3.05;1.48;;;;;;;;;;6179637;23;20025;-75
2020/12/31 07:46:39;;;;;;;3.85;2.03;;;;;;;;;;6178923;23;20028;-75
2020/12/31 07:49:12;;;;;;;3.00;1.75;;;;;;;;;;6181024;23;20100;-76
2020/12/31 07:51:45;;;;;;;6.53;2.40;;;;;;;;;;6179563;23;20744;-74
2020/12/31 07:54:11;;;;;;;3.78;1.52;;;;;;;;;;6181325;23;20100;-76
2020/12/31 07:56:37;;;;;;;7.38;1.75;;;;;;;;;;6181347;23;20108;-77
2020/12/31 07:59:04;;;;;;;4.53;2.03;;;;;;;;;;6179676;23;20457;-76
2020/12/31 08:01:31;;;;;;;4.45;1.90;;;;;;;;;;6181593;23;20044;-80
2020/12/31 08:04:10;;;;;;;5.30;2.05;;;;;;;;;;6181212;23;20049;-76
2020/12/31 08:06:36;;;;;;;4.43;2.15;;;;;;;;;;6154351;23;20246;-76
2020/12/31 08:09:03;;;;;;;4.38;3.22;;;;;;;;;;6177163;23;20038;-75
2020/12/31 08:11:30;;;;;;;7.63;2.17;;;;;;;;;;6181606;23;20545;-76
2020/12/31 08:14:02;;;;;;;5.97;2.67;;;;;;;;;;6178218;23;20068;-77
2020/12/31 08:16:31;;;;;;;5.80;1.98;;;;;;;;;;6177811;23;20033;-75
2020/12/31 08:18:57;;;;;;;8.65;2.03;;;;;;;;;;6176730;23;20059;-79
2020/12/31 08:21:24;;;;;;;3.30;2.00;;;;;;;;;;6152682;23;20027;-79
2020/12/31 08:23:57;;;;;;;3.35;1.55;;;;;;;;;;6177858;23;20056;-81
2020/12/31 08:26:23;;;;;;;3.53;1.80;;;;;;;;;;6179077;23;20496;-80
2020/12/31 08:28:50;;;;;;;5.13;2.17;;;;;;;;;;6180326;23;20021;-79
2020/12/31 08:31:22;;;;;;;3.95;2.10;;;;;;;;;;6179450;23;20017;-79
2020/12/31 08:33:49;;;;;;;4.90;1.77;;;;;;;;;;6180860;23;20055;-80
2020/12/31 08:36:26;;;;;;;5.00;1.73;;;;;;;;;;6178730;23;20104;-79
2020/12/31 08:38:54;;;;;;;3.30;1.40;;;;;;;;;;6180895;23;20136;-79
2020/12/31 08:41:21;;;;;;;3.72;1.80;;;;;;;;;;6180499;23;20037;-80
2020/12/31 08:43:52;;;;;;;2.97;2.15;;;;;;;;;;6178103;23;20033;-79
2020/12/31 08:46:22;;;;;;;3.10;1.75;;;;;;;;;;6179735;23;20021;-79
2020/12/31 08:48:54;;;;;;;4.13;1.63;;;;;;;;;;6180370;23;20031;-78
2020/12/31 08:51:21;;;;;;;3.95;1.85;;;;;;;;;;6180291;23;20472;-79
2020/12/31 08:54:00;;;;;;;2.90;1.20;;;;;;;;;;6181429;23;20021;-78
2020/12/31 08:56:26;;;;;;;2.85;1.45;;;;;;;;;;6182725;23;20025;-79
2020/12/31 08:59:06;;;;;;;3.70;1.25;;;;;;;;;;6181387;23;20348;-77
2020/12/31 09:01:32;;;;;;;2.28;1.25;;;;;;;;;;6183329;23;20107;-78
2020/12/31 09:04:06;;;;;;;2.47;1.80;;;;;;;;;;6183159;23;20029;-77
2020/12/31 09:06:32;;;;;;;2.63;1.77;;;;;;;;;;6183433;23;20087;-77
2020/12/31 09:08:58;;;;;;;3.33;1.02;;;;;;;;;;6181200;23;20044;-80
2020/12/31 09:11:25;;;;;;;2.42;1.48;;;;;;;;;;6181846;23;20100;-78
2020/12/31 09:13:52;;;;;;;2.42;1.27;;;;;;;;;;6182903;23;20091;-78
2020/12/31 09:16:18;;;;;;;1.92;1.30;;;;;;;;;;6180584;23;20025;-79
2020/12/31 09:18:44;;;;;;;3.17;1.30;;;;;;;;;;6180465;23;20410;-75
2020/12/31 09:21:11;;;;;;;2.10;1.23;;;;;;;;;;6181848;23;20100;-77
2020/12/31 09:23:38;;;;;;;1.90;1.48;;;;;;;;;;6155783;23;20029;-78
2020/12/31 09:26:28;;;;;;;1.98;1.40;;;;;;;;;;6180958;23;20021;-79
2020/12/31 09:28:54;;;;;;;1.65;1.00;;;;;;;;;;6156314;23;20029;-80
2020/12/31 09:31:23;;;;;;;1.42;0.98;;;;;;;;;;6181463;23;20523;-84
2020/12/31 09:33:50;;;;;;;4.45;1.70;;;;;;;;;;6183044;23;20021;-82
2020/12/31 09:36:24;;;;;;;5.28;2.00;;;;;;;;;;6183402;23;20025;-82
2020/12/31 09:38:53;;;;;;;8.38;2.33;;;;;;;;;;6181041;23;20044;-85
2020/12/31 09:41:21;;;;;;;8.20;3.13;;;;;;;;;;6183931;23;20024;-94
2020/12/31 09:43:50;;;;;;;14.63;3.60;;;;;;;;;;6183947;23;20424;-84
2020/12/31 09:46:17;;;;;;;10.32;4.00;;;;;;;;;;6176654;23;20055;-85
2020/12/31 09:48:43;;;;;;;11.60;4.32;;;;;;;;;;6179394;23;20116;-86
2020/12/31 09:51:09;;;;;;;11.27;4.45;;;;;;;;;;6181507;23;20017;-78
2020/12/31 09:53:35;;;;;;;11.43;3.80;;;;;;;;;;6181785;23;20103;-82
2020/12/31 09:56:02;;;;;;;9.88;4.15;;;;;;;;;;6180030;23;20025;-81
2020/12/31 09:58:28;;;;;;;7.38;3.42;;;;;;;;;;6180707;23;20155;-82
2020/12/31 10:00:54;;;;;;;21.38;4.13;;;;;;;;;;6154518;23;20109;-80
2020/12/31 10:03:20;;;;;;;10.80;5.07;;;;;;;;;;6179640;23;20025;-83
2020/12/31 10:05:46;;;;;;;7.50;4.15;;;;;;;;;;6181040;23;20108;-79
2020/12/31 10:08:13;;;;;;;17.65;3.55;;;;;;;;;;6183297;23;20044;-80
2020/12/31 10:10:39;;;;;;;10.32;3.97;;;;;;;;;;6181450;23;20100;-92
2020/12/31 10:13:38;;;;;;;7.43;3.53;;;;;;;;;;6160478;23;20729;-88
2020/12/31 10:16:04;;;;;;;14.73;4.72;;;;;;;;;;6186530;23;20029;-93
2020/12/31 10:18:31;;;;;;;7.38;3.50;;;;;;;;;;6185098;23;20177;-92
2020/12/31 10:20:57;;;;;;;11.98;4.13;;;;;;;;;;6187825;23;20461;-96
2020/12/31 10:23:23;;;;;;;7.85;2.97;;;;;;;;;;6187850;23;20105;-95
2020/12/31 10:25:49;;;;;;;8.23;3.42;;;;;;;;;;6187899;23;20023;-93
2020/12/31 10:28:17;;;;;;;8.63;3.35;;;;;;;;;;6188140;23;20116;-95
2020/12/31 10:30:44;;;;;;;6.97;3.17;;;;;;;;;;6192686;22;20322;-91
2020/12/31 10:33:10;;;;;;;6.20;2.65;;;;;;;;;;6187277;23;20607;-92
2020/12/31 10:35:36;;;;;;;9.57;2.92;;;;;;;;;;6187356;23;20029;-93
2020/12/31 10:38:03;;;;;;;7.57;2.83;;;;;;;;;;6187697;23;20017;-94
2020/12/31 10:40:29;;;;;;;6.35;2.38;;;;;;;;;;6185757;23;20100;-93
2020/12/31 10:42:56;;;;;;;6.03;2.75;;;;;;;;;;6186524;23;20020;-93
2020/12/31 10:45:22;;;;;;;8.85;2.53;;;;;;;;;;6186362;23;20059;-92
2020/12/31 10:47:48;;;;;;;5.95;3.42;;;;;;;;;;6187883;23;20063;-91
2020/12/31 10:50:14;;;;;;;7.97;2.70;;;;;;;;;;6186745;23;20103;-91
2020/12/31 10:52:40;;;;;;;6.72;2.65;;;;;;;;;;6187032;23;20100;-93
2020/12/31 10:55:06;;;;;;;6.40;2.10;;;;;;;;;;6187067;23;20021;-93
2020/12/31 10:57:36;;;;;;;4.45;2.25;;;;;;;;;;6186721;23;20096;-93
2020/12/31 11:00:02;;;;;;;6.25;2.47;;;;;;;;;;6187850;23;20091;-93
2020/12/31 11:02:28;;;;;;;4.18;1.95;;;;;;;;;;6186962;23;20017;-90
2020/12/31 11:04:55;;;;;;;6.75;2.50;;;;;;;;;;6187171;23;20100;-93
2020/12/31 11:07:21;;;;;;;5.05;2.30;;;;;;;;;;6187328;23;20017;-92
2020/12/31 11:09:47;;;;;;;3.35;1.95;;;;;;;;;;6186693;23;20032;-92
2020/12/31 11:12:13;;;;;;;6.88;2.30;;;;;;;;;;6185883;23;20028;-92
2020/12/31 11:14:39;;;;;;;6.80;2.55;;;;;;;;;;6185413;23;20099;-92
2020/12/31 11:17:05;;;;;;;5.68;2.45;;;;;;;;;;6186686;23;20092;-94
2020/12/31 11:19:31;;;;;;;6.97;2.47;;;;;;;;;;6160036;23;20092;-94
2020/12/31 11:21:58;;;;;;;6.25;2.13;;;;;;;;;;6160706;23;20040;-92
2020/12/31 11:24:24;;;;;;;3.25;1.70;;;;;;;;;;6185736;23;20057;-93
2020/12/31 11:26:50;;;;;;;4.10;2.30;;;;;;;;;;6186034;23;20056;-90
2020/12/31 11:29:16;;;;;;;7.95;1.90;;;;;;;;;;6185500;23;20099;-94
2020/12/31 11:31:42;;;;;;;7.47;2.15;;;;;;;;;;6186471;23;20512;-93
2020/12/31 11:34:24;;;;;;;5.35;1.90;;;;;;;;;;6186215;23;20053;-94
2020/12/31 11:36:52;;;;;;;3.10;1.88;;;;;;;;;;6186450;23;20353;-92
2020/12/31 11:39:18;;;;;;;5.40;1.92;;;;;;;;;;6187014;23;20091;-92
2020/12/31 11:41:45;;;;;;;3.78;2.78;;;;;;;;;;6185775;23;20071;-93
2020/12/31 11:44:11;;;;;;;3.63;1.52;;;;;;;;;;6185557;23;20096;-94
2020/12/31 11:46:37;;;;;;;4.05;1.63;;;;;;;;;;6159856;23;20063;-94
2020/12/31 11:49:03;;;;;;;4.78;1.90;;;;;;;;;;6186727;23;20021;-94
2020/12/31 11:51:29;;;;;;;3.65;1.50;;;;;;;;;;6185364;23;20096;-93
2020/12/31 11:53:57;;;;;;;2.53;1.55;;;;;;;;;;6185993;23;20051;-91
2020/12/31 11:56:23;;;;;;;6.72;1.52;;;;;;;;;;6185756;23;20032;-93
2020/12/31 11:58:52;;;;;;;2.58;1.55;;;;;;;;;;6186414;23;20051;-93
2020/12/31 12:01:24;;;;;;;3.80;1.77;;;;;;;;;;6186696;23;20049;-93
2020/12/31 12:03:51;;;;;;;3.30;1.70;;;;;;;;;;6182961;23;20100;-80
2020/12/31 12:06:17;;;;;;;2.97;1.90;;;;;;;;;;6180915;23;20060;-78
2020/12/31 12:08:43;;;;;;;3.80;1.52;;;;;;;;;;6180066;23;20020;-93
2020/12/31 12:11:09;;;;;;;4.40;1.40;;;;;;;;;;6180996;23;20027;-91
2020/12/31 12:13:35;;;;;;;6.47;1.90;;;;;;;;;;6183580;23;20115;-94
2020/12/31 12:16:01;;;;;;;3.95;1.45;;;;;;;;;;6185069;23;20018;-80
2020/12/31 12:18:27;;;;;;;3.63;1.90;;;;;;;;;;6181944;23;20104;-81
2020/12/31 12:21:00;;;;;;;5.57;2.10;;;;;;;;;;6181947;23;20065;-80
2020/12/31 12:23:26;;;;;;;5.68;1.50;;;;;;;;;;6181279;23;20408;-81
2020/12/31 12:25:52;;;;;;;2.67;1.50;;;;;;;;;;6180730;23;20517;-80
2020/12/31 12:28:19;;;;;;;4.03;1.55;;;;;;;;;;6181839;23;20398;-80
2020/12/31 12:30:46;;;;;;;3.95;1.65;;;;;;;;;;6183325;23;20096;-81
2020/12/31 12:33:12;;;;;;;3.83;1.77;;;;;;;;;;6183762;23;20044;-82
2020/12/31 12:35:38;;;;;;;7.43;1.65;;;;;;;;;;6181506;23;20027;-81
2020/12/31 12:38:07;;;;;;;2.20;1.50;;;;;;;;;;6185950;23;20017;-95
2020/12/31 12:40:33;;;;;;;4.00;1.60;;;;;;;;;;6185388;23;20021;-90
2020/12/31 12:43:00;;;;;;;2.58;1.60;;;;;;;;;;6182866;23;20263;-86
2020/12/31 12:45:26;;;;;;;3.90;1.58;;;;;;;;;;6183666;23;20024;-85
2020/12/31 12:47:52;;;;;;;2.83;1.45;;;;;;;;;;6182990;23;20136;-86
2020/12/31 12:50:18;;;;;;;4.68;2.22;;;;;;;;;;6182925;23;20477;-85
2020/12/31 12:52:44;;;;;;;4.68;2.15;;;;;;;;;;6181062;23;20461;-85
2020/12/31 12:55:10;;;;;;;4.85;1.83;;;;;;;;;;6182981;23;20048;-86
2020/12/31 12:57:36;;;;;;;2.97;1.70;;;;;;;;;;6182586;23;20025;-85
2020/12/31 13:00:03;;;;;;;5.95;1.58;;;;;;;;;;6182884;23;20028;-87
2020/12/31 13:02:29;;;;;;;4.15;1.50;;;;;;;;;;6182961;23;20406;-87
2020/12/31 13:04:56;;;;;;;4.75;1.33;;;;;;;;;;6183339;23;20103;-88
2020/12/31 13:07:22;;;;;;;2.35;1.38;;;;;;;;;;6182756;23;20100;-87
2020/12/31 13:09:48;;;;;;;1.83;1.00;;;;;;;;;;6182382;23;20345;-86
2020/12/31 13:12:22;;;;;;;3.13;1.30;;;;;;;;;;6183348;23;20084;-88
2020/12/31 13:14:49;;;;;;;3.55;1.30;;;;;;;;;;6156736;23;20063;-87
2020/12/31 13:17:15;;;;;;;3.53;1.35;;;;;;;;;;6157815;23;20104;-88
2020/12/31 13:19:41;;;;;;;4.13;1.40;;;;;;;;;;6176806;23;20109;-83
2020/12/31 13:22:08;;;;;;;2.42;1.40;;;;;;;;;;6181908;23;20104;-82
2020/12/31 13:24:34;;;;;;;3.20;2.20;;;;;;;;;;6181599;23;20021;-84
2020/12/31 13:27:00;;;;;;;4.53;2.80;;;;;;;;;;6181061;23;20021;-84
2020/12/31 13:29:26;;;;;;;7.20;3.30;;;;;;;;;;6180693;23;20768;-84
2020/12/31 13:31:52;;;;;;;8.10;3.40;;;;;;;;;;6181105;23;20017;-84
2020/12/31 13:34:18;;;;;;;5.32;3.38;;;;;;;;;;6182042;23;20064;-84
2020/12/31 13:36:48;;;;;;;4.70;2.92;;;;;;;;;;6180906;23;20503;-87
2020/12/31 13:39:14;;;;;;;6.13;3.83;;;;;;;;;;6182265;23;20096;-87
2020/12/31 13:41:40;;;;;;;6.60;3.72;;;;;;;;;;6182689;23;20680;-82
2020/12/31 13:44:06;;;;;;;14.52;3.70;;;;;;;;;;6182721;23;20077;-81
2020/12/31 13:46:32;;;;;;;6.20;3.28;;;;;;;;;;6156023;23;20357;-82
2020/12/31 13:48:59;;;;;;;7.03;3.83;;;;;;;;;;6183518;23;20029;-95
2020/12/31 13:51:27;;;;;;;8.77;3.97;;;;;;;;;;6186952;23;20021;-81
2020/12/31 13:53:53;;;;;;;6.38;3.47;;;;;;;;;;6176089;23;20064;-83
2020/12/31 13:56:23;;;;;;;6.32;3.22;;;;;;;;;;6180505;23;20051;-84
2020/12/31 13:58:49;;;;;;;9.02;3.28;;;;;;;;;;6181427;23;20528;-82
2020/12/31 14:01:16;;;;;;;4.88;3.20;;;;;;;;;;6181989;23;20397;-83
2020/12/31 14:03:42;;;;;;;7.03;3.88;;;;;;;;;;6181362;23;20025;-83
2020/12/31 14:06:08;;;;;;;8.38;4.30;;;;;;;;;;6179652;23;20165;-83
2020/12/31 14:08:34;;;;;;;6.82;3.78;;;;;;;;;;6181988;23;20032;-93
2020/12/31 14:11:00;;;;;;;8.40;4.65;;;;;;;;;;6186057;23;20132;-94
2020/12/31 14:13:29;;;;;;;7.78;3.75;;;;;;;;;;6185898;23;20453;-92
2020/12/31 14:16:02;;;;;;;7.75;4.15;;;;;;;;;;6185041;23;20017;-92
2020/12/31 14:18:29;;;;;;;9.07;3.90;;;;;;;;;;6183788;23;20057;-92
2020/12/31 14:20:59;;;;;;;5.85;3.25;;;;;;;;;;6185872;23;20025;-94
2020/12/31 14:23:28;;;;;;;6.18;3.80;;;;;;;;;;6159826;23;20107;-92
2020/12/31 14:25:54;;;;;;;6.97;3.90;;;;;;;;;;6184524;23;20334;-93
2020/12/31 14:28:21;;;;;;;6.20;3.80;;;;;;;;;;6181828;23;20021;-91
2020/12/31 14:30:47;;;;;;;6.72;3.53;;;;;;;;;;6154046;23;20071;-82
2020/12/31 14:33:13;;;;;;;7.63;3.45;;;;;;;;;;6181103;23;20139;-82
2020/12/31 14:35:39;;;;;;;6.45;3.80;;;;;;;;;;6180751;23;20053;-89
2020/12/31 14:38:07;;;;;;;10.30;4.78;;;;;;;;;;6181596;23;20102;-87
2020/12/31 14:40:33;;;;;;;11.63;4.53;;;;;;;;;;6181643;23;20071;-88
2020/12/31 14:43:00;;;;;;;7.82;3.92;;;;;;;;;;6182677;23;20021;-88
2020/12/31 14:45:28;;;;;;;8.77;3.80;;;;;;;;;;6183693;23;20032;-91
2020/12/31 14:47:58;;;;;;;5.90;3.65;;;;;;;;;;6181786;23;20067;-89